sensor_id;sensor_type;location;lat;lon;timestamp;temperature;humidity
23803;DHT22;12082;51.786;6.018;2022-09-03T00:00:24;13.10;99.90
23803;DHT22;12082;51.786;6.018;2022-09-03T00:02:30;13.10;99.90
23803;DHT22;12082;51.786;6.018;2022-09-03T00:05:09;13.20;99.90
23803;DHT22;12082;51.786;6.018;2022-09-03T00:07:42;13.20;99.90
23803;DHT22;12082;51.786;6.018;2022-09-03T00:10:15;13.20;99.90
23803;DHT22;12082;51.786;6.018;2022-09-03T00:12:46;13.30;99.90
23803;DHT22;12082;51.786;6.018;2022-09-03T00:15:14;13.30;99.90
23803;DHT22;12082;51.786;6.018;2022-09-03T00:17:48;13.20;99.90
23803;DHT22;12082;51.786;6.018;2022-09-03T00:20:23;13.40;99.90
23803;DHT22;12082;51.786;6.018;2022-09-03T00:22:53;13.00;99.90
23803;DHT22;12082;51.786;6.018;2022-09-03T00:28:14;12.90;99.90
23803;DHT22;12082;51.786;6.018;2022-09-03T00:30:46;12.80;99.90
23803;DHT22;12082;51.786;6.018;2022-09-03T00:33:20;12.80;99.90
23803;DHT22;12082;51.786;6.018;2022-09-03T00:36:02;12.80;99.90
23803;DHT22;12082;51.786;6.018;2022-09-03T00:38:29;12.90;99.90
23803;DHT22;12082;51.786;6.018;2022-09-03T00:48:52;12.60;99.90
23803;DHT22;12082;51.786;6.018;2022-09-03T00:51:40;12.50;99.90
23803;DHT22;12082;51.786;6.018;2022-09-03T00:54:27;12.50;99.90
23803;DHT22;12082;51.786;6.018;2022-09-03T00:57:02;12.50;99.90
23803;DHT22;12082;51.786;6.018;2022-09-03T01:08:30;12.40;99.90
23803;DHT22;12082;51.786;6.018;2022-09-03T01:11:30;12.30;99.90
23803;DHT22;12082;51.786;6.018;2022-09-03T01:17:09;12.20;99.90
23803;DHT22;12082;51.786;6.018;2022-09-03T01:23:00;12.10;99.90
23803;DHT22;12082;51.786;6.018;2022-09-03T01:33:43;12.00;99.90
23803;DHT22;12082;51.786;6.018;2022-09-03T01:38:51;12.00;99.90
23803;DHT22;12082;51.786;6.018;2022-09-03T01:46:45;11.90;99.90
23803;DHT22;12082;51.786;6.018;2022-09-03T01:49:24;11.90;99.90
23803;DHT22;12082;51.786;6.018;2022-09-03T01:52:21;11.90;99.90
23803;DHT22;12082;51.786;6.018;2022-09-03T01:57:41;11.90;99.90
23803;DHT22;12082;51.786;6.018;2022-09-03T02:00:11;11.90;99.90
23803;DHT22;12082;51.786;6.018;2022-09-03T02:02:39;11.80;99.90
23803;DHT22;12082;51.786;6.018;2022-09-03T02:07:46;11.80;99.90
23803;DHT22;12082;51.786;6.018;2022-09-03T02:10:17;11.80;99.90
23803;DHT22;12082;51.786;6.018;2022-09-03T02:12:55;11.80;99.90
23803;DHT22;12082;51.786;6.018;2022-09-03T02:15:24;11.70;99.90
23803;DHT22;12082;51.786;6.018;2022-09-03T02:17:52;11.70;99.90
23803;DHT22;12082;51.786;6.018;2022-09-03T02:20:21;11.70;99.90
23803;DHT22;12082;51.786;6.018;2022-09-03T02:22:48;11.70;99.90
23803;DHT22;12082;51.786;6.018;2022-09-03T02:25:15;11.60;99.90
23803;DHT22;12082;51.786;6.018;2022-09-03T02:27:42;11.50;99.90
23803;DHT22;12082;51.786;6.018;2022-09-03T02:30:09;11.70;99.90
23803;DHT22;12082;51.786;6.018;2022-09-03T02:32:35;11.60;99.90
23803;DHT22;12082;51.786;6.018;2022-09-03T02:35:01;11.60;99.90
23803;DHT22;12082;51.786;6.018;2022-09-03T02:37:27;11.60;99.90
23803;DHT22;12082;51.786;6.018;2022-09-03T02:39:52;11.60;99.90
23803;DHT22;12082;51.786;6.018;2022-09-03T02:42:18;11.90;99.90
23803;DHT22;12082;51.786;6.018;2022-09-03T02:44:47;11.50;99.90
23803;DHT22;12082;51.786;6.018;2022-09-03T02:47:15;11.50;99.90
23803;DHT22;12082;51.786;6.018;2022-09-03T02:49:40;11.40;99.90
23803;DHT22;12082;51.786;6.018;2022-09-03T02:52:09;11.40;99.90
23803;DHT22;12082;51.786;6.018;2022-09-03T02:54:37;11.40;99.90
23803;DHT22;12082;51.786;6.018;2022-09-03T02:57:13;11.30;99.90
23803;DHT22;12082;51.786;6.018;2022-09-03T02:59:40;11.30;99.90
23803;DHT22;12082;51.786;6.018;2022-09-03T03:02:09;11.30;99.90
23803;DHT22;12082;51.786;6.018;2022-09-03T03:04:34;11.30;99.90
23803;DHT22;12082;51.786;6.018;2022-09-03T03:07:00;11.30;99.90
23803;DHT22;12082;51.786;6.018;2022-09-03T03:09:26;11.50;99.90
23803;DHT22;12082;51.786;6.018;2022-09-03T03:11:52;11.40;99.90
23803;DHT22;12082;51.786;6.018;2022-09-03T03:14:20;11.40;99.90
23803;DHT22;12082;51.786;6.018;2022-09-03T03:16:47;11.50;99.90
23803;DHT22;12082;51.786;6.018;2022-09-03T03:19:13;11.60;99.90
23803;DHT22;12082;51.786;6.018;2022-09-03T03:21:38;11.70;99.90
23803;DHT22;12082;51.786;6.018;2022-09-03T03:24:04;11.90;99.90
23803;DHT22;12082;51.786;6.018;2022-09-03T03:26:30;12.00;99.90
23803;DHT22;12082;51.786;6.018;2022-09-03T03:28:59;12.10;99.90
23803;DHT22;12082;51.786;6.018;2022-09-03T03:31:26;12.30;99.90
23803;DHT22;12082;51.786;6.018;2022-09-03T03:34:00;12.60;99.90
23803;DHT22;12082;51.786;6.018;2022-09-03T03:36:28;12.60;99.90
23803;DHT22;12082;51.786;6.018;2022-09-03T03:38:56;12.60;99.90
23803;DHT22;12082;51.786;6.018;2022-09-03T03:41:24;12.60;99.90
23803;DHT22;12082;51.786;6.018;2022-09-03T03:43:54;12.60;99.90
23803;DHT22;12082;51.786;6.018;2022-09-03T03:46:22;12.70;99.90
23803;DHT22;12082;51.786;6.018;2022-09-03T03:48:48;12.90;99.90
23803;DHT22;12082;51.786;6.018;2022-09-03T03:51:14;12.90;99.90
23803;DHT22;12082;51.786;6.018;2022-09-03T03:53:40;12.90;99.90
23803;DHT22;12082;51.786;6.018;2022-09-03T03:56:08;13.00;99.90
23803;DHT22;12082;51.786;6.018;2022-09-03T03:58:35;13.10;99.90
23803;DHT22;12082;51.786;6.018;2022-09-03T04:01:06;13.10;99.90
23803;DHT22;12082;51.786;6.018;2022-09-03T04:03:33;13.20;99.90
23803;DHT22;12082;51.786;6.018;2022-09-03T04:05:59;13.00;99.90
23803;DHT22;12082;51.786;6.018;2022-09-03T04:08:26;13.10;99.90
23803;DHT22;12082;51.786;6.018;2022-09-03T04:10:52;13.10;99.90
23803;DHT22;12082;51.786;6.018;2022-09-03T04:13:18;13.10;99.90
23803;DHT22;12082;51.786;6.018;2022-09-03T04:15:44;13.20;99.90
23803;DHT22;12082;51.786;6.018;2022-09-03T04:18:10;13.30;99.90
23803;DHT22;12082;51.786;6.018;2022-09-03T04:20:36;13.10;99.90
23803;DHT22;12082;51.786;6.018;2022-09-03T04:23:03;13.20;99.90
23803;DHT22;12082;51.786;6.018;2022-09-03T04:25:29;13.30;99.90
23803;DHT22;12082;51.786;6.018;2022-09-03T04:27:54;13.30;99.90
23803;DHT22;12082;51.786;6.018;2022-09-03T04:30:20;13.30;99.90
23803;DHT22;12082;51.786;6.018;2022-09-03T04:32:49;13.30;99.90
23803;DHT22;12082;51.786;6.018;2022-09-03T04:35:18;13.30;99.90
23803;DHT22;12082;51.786;6.018;2022-09-03T04:37:45;13.20;99.90
23803;DHT22;12082;51.786;6.018;2022-09-03T04:40:11;13.20;99.90
23803;DHT22;12082;51.786;6.018;2022-09-03T04:42:37;13.00;99.90
23803;DHT22;12082;51.786;6.018;2022-09-03T04:45:02;12.90;99.90
23803;DHT22;12082;51.786;6.018;2022-09-03T04:47:28;12.70;99.90
23803;DHT22;12082;51.786;6.018;2022-09-03T04:49:54;12.60;99.90
23803;DHT22;12082;51.786;6.018;2022-09-03T04:52:20;12.40;99.90
23803;DHT22;12082;51.786;6.018;2022-09-03T04:54:45;12.30;99.90
23803;DHT22;12082;51.786;6.018;2022-09-03T04:57:11;12.00;99.90
23803;DHT22;12082;51.786;6.018;2022-09-03T04:59:38;12.10;99.90
23803;DHT22;12082;51.786;6.018;2022-09-03T05:02:05;12.10;99.90
23803;DHT22;12082;51.786;6.018;2022-09-03T05:04:31;11.90;99.90
23803;DHT22;12082;51.786;6.018;2022-09-03T05:06:56;11.90;99.90
23803;DHT22;12082;51.786;6.018;2022-09-03T05:09:22;11.80;99.90
23803;DHT22;12082;51.786;6.018;2022-09-03T05:11:47;11.80;99.90
23803;DHT22;12082;51.786;6.018;2022-09-03T05:14:13;11.90;99.90
23803;DHT22;12082;51.786;6.018;2022-09-03T05:16:38;11.90;99.90
23803;DHT22;12082;51.786;6.018;2022-09-03T05:19:04;11.80;99.90
23803;DHT22;12082;51.786;6.018;2022-09-03T05:21:33;11.80;99.90
23803;DHT22;12082;51.786;6.018;2022-09-03T05:24:03;11.80;99.90
23803;DHT22;12082;51.786;6.018;2022-09-03T05:26:32;11.80;99.90
23803;DHT22;12082;51.786;6.018;2022-09-03T05:29:03;11.80;99.90
23803;DHT22;12082;51.786;6.018;2022-09-03T05:31:38;11.90;99.90
23803;DHT22;12082;51.786;6.018;2022-09-03T05:34:05;11.90;99.90
23803;DHT22;12082;51.786;6.018;2022-09-03T05:36:33;12.20;99.90
23803;DHT22;12082;51.786;6.018;2022-09-03T05:38:59;12.00;99.90
23803;DHT22;12082;51.786;6.018;2022-09-03T05:41:26;12.10;99.90
23803;DHT22;12082;51.786;6.018;2022-09-03T05:43:53;12.20;99.90
23803;DHT22;12082;51.786;6.018;2022-09-03T05:46:22;12.20;99.90
23803;DHT22;12082;51.786;6.018;2022-09-03T05:48:51;12.30;99.90
23803;DHT22;12082;51.786;6.018;2022-09-03T05:51:17;12.30;99.90
23803;DHT22;12082;51.786;6.018;2022-09-03T05:53:45;12.30;99.90
23803;DHT22;12082;51.786;6.018;2022-09-03T05:56:16;12.40;99.90
23803;DHT22;12082;51.786;6.018;2022-09-03T05:58:44;12.50;99.90
23803;DHT22;12082;51.786;6.018;2022-09-03T06:01:18;12.50;99.90
23803;DHT22;12082;51.786;6.018;2022-09-03T06:03:47;12.70;99.90
23803;DHT22;12082;51.786;6.018;2022-09-03T06:06:13;12.90;99.90
23803;DHT22;12082;51.786;6.018;2022-09-03T06:08:40;13.30;99.90
23803;DHT22;12082;51.786;6.018;2022-09-03T06:11:06;13.80;99.90
23803;DHT22;12082;51.786;6.018;2022-09-03T06:13:33;14.20;99.90
23803;DHT22;12082;51.786;6.018;2022-09-03T06:16:02;14.50;99.90
23803;DHT22;12082;51.786;6.018;2022-09-03T06:18:29;14.70;99.90
23803;DHT22;12082;51.786;6.018;2022-09-03T06:21:00;14.70;99.90
23803;DHT22;12082;51.786;6.018;2022-09-03T06:23:26;15.00;99.90
23803;DHT22;12082;51.786;6.018;2022-09-03T06:26:06;15.30;99.90
23803;DHT22;12082;51.786;6.018;2022-09-03T06:28:34;15.40;99.90
23803;DHT22;12082;51.786;6.018;2022-09-03T06:31:01;15.40;99.90
23803;DHT22;12082;51.786;6.018;2022-09-03T06:33:29;15.50;99.90
23803;DHT22;12082;51.786;6.018;2022-09-03T06:35:56;16.30;99.90
23803;DHT22;12082;51.786;6.018;2022-09-03T06:38:25;15.70;99.90
23803;DHT22;12082;51.786;6.018;2022-09-03T06:41:14;15.80;99.90
23803;DHT22;12082;51.786;6.018;2022-09-03T06:43:45;16.10;99.90
23803;DHT22;12082;51.786;6.018;2022-09-03T06:46:13;16.30;99.90
23803;DHT22;12082;51.786;6.018;2022-09-03T06:48:40;16.40;99.90
23803;DHT22;12082;51.786;6.018;2022-09-03T06:51:13;16.60;99.60
23803;DHT22;12082;51.786;6.018;2022-09-03T06:53:41;16.60;99.60
23803;DHT22;12082;51.786;6.018;2022-09-03T06:56:10;16.80;99.20
23803;DHT22;12082;51.786;6.018;2022-09-03T06:58:38;16.80;99.70
23803;DHT22;12082;51.786;6.018;2022-09-03T07:03:41;17.00;99.20
23803;DHT22;12082;51.786;6.018;2022-09-03T07:06:10;17.00;98.70
23803;DHT22;12082;51.786;6.018;2022-09-03T07:08:36;17.20;99.50
23803;DHT22;12082;51.786;6.018;2022-09-03T07:11:05;17.50;99.90
23803;DHT22;12082;51.786;6.018;2022-09-03T07:13:39;18.20;97.90
23803;DHT22;12082;51.786;6.018;2022-09-03T07:16:16;19.10;96.30
23803;DHT22;12082;51.786;6.018;2022-09-03T07:18:43;20.00;92.40
23803;DHT22;12082;51.786;6.018;2022-09-03T07:21:11;21.00;90.10
23803;DHT22;12082;51.786;6.018;2022-09-03T07:23:38;21.80;85.10
23803;DHT22;12082;51.786;6.018;2022-09-03T07:26:24;22.50;83.00
23803;DHT22;12082;51.786;6.018;2022-09-03T07:28:50;23.10;80.30
23803;DHT22;12082;51.786;6.018;2022-09-03T07:31:30;23.60;77.40
23803;DHT22;12082;51.786;6.018;2022-09-03T07:34:01;24.40;73.80
23803;DHT22;12082;51.786;6.018;2022-09-03T07:36:34;25.10;70.30
23803;DHT22;12082;51.786;6.018;2022-09-03T07:38:59;25.30;70.20
23803;DHT22;12082;51.786;6.018;2022-09-03T07:41:26;25.20;69.00
23803;DHT22;12082;51.786;6.018;2022-09-03T07:43:52;25.60;66.50
23803;DHT22;12082;51.786;6.018;2022-09-03T07:46:23;25.70;67.20
23803;DHT22;12082;51.786;6.018;2022-09-03T07:48:50;26.00;66.40
23803;DHT22;12082;51.786;6.018;2022-09-03T07:51:22;26.70;64.40
23803;DHT22;12082;51.786;6.018;2022-09-03T07:53:52;26.80;60.60
23803;DHT22;12082;51.786;6.018;2022-09-03T07:56:18;26.60;61.60
23803;DHT22;12082;51.786;6.018;2022-09-03T07:58:43;26.60;62.70
23803;DHT22;12082;51.786;6.018;2022-09-03T08:01:11;26.80;61.20
23803;DHT22;12082;51.786;6.018;2022-09-03T08:03:38;26.50;63.30
23803;DHT22;12082;51.786;6.018;2022-09-03T08:06:07;26.70;64.60
23803;DHT22;12082;51.786;6.018;2022-09-03T08:08:35;27.20;61.10
23803;DHT22;12082;51.786;6.018;2022-09-03T08:13:34;27.00;59.00
23803;DHT22;12082;51.786;6.018;2022-09-03T08:15:59;26.80;59.50
23803;DHT22;12082;51.786;6.018;2022-09-03T08:18:26;26.50;60.50
23803;DHT22;12082;51.786;6.018;2022-09-03T08:20:54;26.30;61.20
23803;DHT22;12082;51.786;6.018;2022-09-03T08:23:23;26.70;61.90
23803;DHT22;12082;51.786;6.018;2022-09-03T08:25:56;26.60;62.00
23803;DHT22;12082;51.786;6.018;2022-09-03T08:28:22;26.80;61.00
23803;DHT22;12082;51.786;6.018;2022-09-03T08:30:48;26.70;60.90
23803;DHT22;12082;51.786;6.018;2022-09-03T08:33:14;26.70;60.00
23803;DHT22;12082;51.786;6.018;2022-09-03T08:35:39;26.80;59.50
23803;DHT22;12082;51.786;6.018;2022-09-03T08:38:05;26.60;59.00
23803;DHT22;12082;51.786;6.018;2022-09-03T08:40:36;26.90;60.40
23803;DHT22;12082;51.786;6.018;2022-09-03T08:43:14;27.00;59.90
23803;DHT22;12082;51.786;6.018;2022-09-03T08:45:43;26.90;59.20
23803;DHT22;12082;51.786;6.018;2022-09-03T08:48:20;26.80;58.40
23803;DHT22;12082;51.786;6.018;2022-09-03T08:50:50;26.50;59.70
23803;DHT22;12082;51.786;6.018;2022-09-03T08:53:39;26.50;60.20
23803;DHT22;12082;51.786;6.018;2022-09-03T08:56:09;26.10;60.00
23803;DHT22;12082;51.786;6.018;2022-09-03T08:58:36;25.30;62.60
23803;DHT22;12082;51.786;6.018;2022-09-03T09:01:05;24.70;66.70
23803;DHT22;12082;51.786;6.018;2022-09-03T09:12:28;24.70;64.80
23803;DHT22;12082;51.786;6.018;2022-09-03T09:21:06;23.60;68.20
23803;DHT22;12082;51.786;6.018;2022-09-03T09:23:43;23.60;69.80
23803;DHT22;12082;51.786;6.018;2022-09-03T09:26:14;23.70;71.50
23803;DHT22;12082;51.786;6.018;2022-09-03T09:28:41;23.70;68.10
23803;DHT22;12082;51.786;6.018;2022-09-03T09:31:10;23.50;71.30
23803;DHT22;12082;51.786;6.018;2022-09-03T09:33:39;23.60;70.00
23803;DHT22;12082;51.786;6.018;2022-09-03T09:36:10;23.60;68.80
23803;DHT22;12082;51.786;6.018;2022-09-03T09:38:39;23.70;70.80
23803;DHT22;12082;51.786;6.018;2022-09-03T09:41:19;23.90;71.40
23803;DHT22;12082;51.786;6.018;2022-09-03T09:43:46;23.90;67.70
23803;DHT22;12082;51.786;6.018;2022-09-03T09:46:22;23.90;67.90
23803;DHT22;12082;51.786;6.018;2022-09-03T09:48:54;24.00;68.90
23803;DHT22;12082;51.786;6.018;2022-09-03T09:51:30;24.00;68.50
23803;DHT22;12082;51.786;6.018;2022-09-03T09:54:25;24.00;70.30
23803;DHT22;12082;51.786;6.018;2022-09-03T09:57:04;24.00;69.90
23803;DHT22;12082;51.786;6.018;2022-09-03T09:59:31;24.00;70.80
23803;DHT22;12082;51.786;6.018;2022-09-03T10:04:36;24.00;71.60
23803;DHT22;12082;51.786;6.018;2022-09-03T10:07:26;24.00;70.20
23803;DHT22;12082;51.786;6.018;2022-09-03T10:10:19;24.00;69.20
23803;DHT22;12082;51.786;6.018;2022-09-03T10:15:34;23.90;67.10
23803;DHT22;12082;51.786;6.018;2022-09-03T10:23:09;24.00;69.80
23803;DHT22;12082;51.786;6.018;2022-09-03T10:25:42;24.00;68.80
23803;DHT22;12082;51.786;6.018;2022-09-03T10:28:14;24.00;68.50
23803;DHT22;12082;51.786;6.018;2022-09-03T10:33:23;24.10;71.50
23803;DHT22;12082;51.786;6.018;2022-09-03T10:36:06;24.10;70.90
23803;DHT22;12082;51.786;6.018;2022-09-03T10:38:33;24.10;69.10
23803;DHT22;12082;51.786;6.018;2022-09-03T10:47:08;24.10;70.50
23803;DHT22;12082;51.786;6.018;2022-09-03T10:52:09;24.20;68.90
23803;DHT22;12082;51.786;6.018;2022-09-03T10:55:30;24.20;69.50
23803;DHT22;12082;51.786;6.018;2022-09-03T11:07:04;24.30;72.00
23803;DHT22;12082;51.786;6.018;2022-09-03T11:12:15;24.30;71.10
23803;DHT22;12082;51.786;6.018;2022-09-03T11:14:51;24.30;69.30
23803;DHT22;12082;51.786;6.018;2022-09-03T11:17:25;24.40;69.20
23803;DHT22;12082;51.786;6.018;2022-09-03T11:20:03;24.40;71.10
23803;DHT22;12082;51.786;6.018;2022-09-03T11:22:35;24.40;69.40
23803;DHT22;12082;51.786;6.018;2022-09-03T11:25:02;24.40;71.10
23803;DHT22;12082;51.786;6.018;2022-09-03T11:30:08;24.50;70.40
23803;DHT22;12082;51.786;6.018;2022-09-03T11:32:54;24.60;71.50
23803;DHT22;12082;51.786;6.018;2022-09-03T11:35:27;24.60;67.50
23803;DHT22;12082;51.786;6.018;2022-09-03T11:40:56;24.60;68.50
23803;DHT22;12082;51.786;6.018;2022-09-03T11:48:51;25.00;69.70
23803;DHT22;12082;51.786;6.018;2022-09-03T11:51:31;25.10;70.30
23803;DHT22;12082;51.786;6.018;2022-09-03T11:54:03;25.10;69.30
23803;DHT22;12082;51.786;6.018;2022-09-03T11:56:31;25.20;69.60
23803;DHT22;12082;51.786;6.018;2022-09-03T12:01:26;25.30;68.40
23803;DHT22;12082;51.786;6.018;2022-09-03T12:03:55;25.40;71.80
23803;DHT22;12082;51.786;6.018;2022-09-03T12:06:40;25.50;68.30
23803;DHT22;12082;51.786;6.018;2022-09-03T12:18:13;25.60;66.30
23803;DHT22;12082;51.786;6.018;2022-09-03T12:20:45;25.50;65.00
23803;DHT22;12082;51.786;6.018;2022-09-03T12:23:12;25.40;66.40
23803;DHT22;12082;51.786;6.018;2022-09-03T12:25:43;25.60;65.40
23803;DHT22;12082;51.786;6.018;2022-09-03T12:28:16;25.30;65.60
23803;DHT22;12082;51.786;6.018;2022-09-03T12:30:44;25.40;67.40
23803;DHT22;12082;51.786;6.018;2022-09-03T12:33:12;26.10;65.20
23803;DHT22;12082;51.786;6.018;2022-09-03T12:35:38;25.50;65.30
23803;DHT22;12082;51.786;6.018;2022-09-03T12:38:04;25.50;66.40
23803;DHT22;12082;51.786;6.018;2022-09-03T12:40:30;25.50;65.40
23803;DHT22;12082;51.786;6.018;2022-09-03T12:43:15;25.50;65.70
23803;DHT22;12082;51.786;6.018;2022-09-03T12:45:43;25.40;67.30
23803;DHT22;12082;51.786;6.018;2022-09-03T12:48:13;25.60;68.10
23803;DHT22;12082;51.786;6.018;2022-09-03T12:50:44;25.70;70.20
23803;DHT22;12082;51.786;6.018;2022-09-03T12:53:21;25.80;65.30
23803;DHT22;12082;51.786;6.018;2022-09-03T12:55:52;25.80;65.30
23803;DHT22;12082;51.786;6.018;2022-09-03T13:01:11;25.90;64.80
23803;DHT22;12082;51.786;6.018;2022-09-03T13:04:09;26.00;64.80
23803;DHT22;12082;51.786;6.018;2022-09-03T13:09:20;26.00;64.20
23803;DHT22;12082;51.786;6.018;2022-09-03T13:11:47;26.00;64.70
23803;DHT22;12082;51.786;6.018;2022-09-03T13:14:14;26.00;65.20
23803;DHT22;12082;51.786;6.018;2022-09-03T13:29:56;26.60;63.70
23803;DHT22;12082;51.786;6.018;2022-09-03T13:40:54;26.80;64.60
23803;DHT22;12082;51.786;6.018;2022-09-03T13:43:46;26.90;63.50
23803;DHT22;12082;51.786;6.018;2022-09-03T13:46:28;26.90;63.50
23803;DHT22;12082;51.786;6.018;2022-09-03T13:49:07;26.80;62.10
23803;DHT22;12082;51.786;6.018;2022-09-03T13:51:58;26.80;63.60
23803;DHT22;12082;51.786;6.018;2022-09-03T13:54:34;26.90;61.40
23803;DHT22;12082;51.786;6.018;2022-09-03T13:57:04;26.90;62.60
23803;DHT22;12082;51.786;6.018;2022-09-03T13:59:51;27.00;62.00
23803;DHT22;12082;51.786;6.018;2022-09-03T14:05:15;27.10;61.00
23803;DHT22;12082;51.786;6.018;2022-09-03T14:10:58;27.10;61.00
23803;DHT22;12082;51.786;6.018;2022-09-03T14:22:18;27.30;58.10
23803;DHT22;12082;51.786;6.018;2022-09-03T14:24:58;27.40;58.00
23803;DHT22;12082;51.786;6.018;2022-09-03T14:27:30;27.60;57.60
23803;DHT22;12082;51.786;6.018;2022-09-03T14:30:05;27.80;56.30
23803;DHT22;12082;51.786;6.018;2022-09-03T14:35:43;27.80;57.80
23803;DHT22;12082;51.786;6.018;2022-09-03T14:41:21;27.90;58.00
23803;DHT22;12082;51.786;6.018;2022-09-03T14:46:34;27.60;57.70
23803;DHT22;12082;51.786;6.018;2022-09-03T14:52:27;27.90;57.00
23803;DHT22;12082;51.786;6.018;2022-09-03T14:55:11;27.80;58.00
23803;DHT22;12082;51.786;6.018;2022-09-03T14:57:50;27.80;58.40
23803;DHT22;12082;51.786;6.018;2022-09-03T15:00:21;27.70;58.30
23803;DHT22;12082;51.786;6.018;2022-09-03T15:06:13;27.70;58.70
23803;DHT22;12082;51.786;6.018;2022-09-03T15:09:07;27.80;59.10
23803;DHT22;12082;51.786;6.018;2022-09-03T15:11:32;27.50;58.10
23803;DHT22;12082;51.786;6.018;2022-09-03T15:14:03;27.40;59.60
23803;DHT22;12082;51.786;6.018;2022-09-03T15:19:46;27.60;61.30
23803;DHT22;12082;51.786;6.018;2022-09-03T15:22:45;27.50;59.70
23803;DHT22;12082;51.786;6.018;2022-09-03T15:31:41;27.80;61.90
23803;DHT22;12082;51.786;6.018;2022-09-03T15:36:47;28.30;61.10
23803;DHT22;12082;51.786;6.018;2022-09-03T15:41:59;28.10;60.20
23803;DHT22;12082;51.786;6.018;2022-09-03T15:44:35;27.60;61.30
23803;DHT22;12082;51.786;6.018;2022-09-03T15:47:08;27.40;61.70
23803;DHT22;12082;51.786;6.018;2022-09-03T15:49:48;27.10;64.90
23803;DHT22;12082;51.786;6.018;2022-09-03T16:01:13;26.60;65.80
23803;DHT22;12082;51.786;6.018;2022-09-03T16:07:02;26.50;67.80
23803;DHT22;12082;51.786;6.018;2022-09-03T16:15:09;26.60;67.60
23803;DHT22;12082;51.786;6.018;2022-09-03T16:20:55;26.80;66.30
23803;DHT22;12082;51.786;6.018;2022-09-03T16:26:17;26.80;67.20
23803;DHT22;12082;51.786;6.018;2022-09-03T16:28:52;26.80;67.60
23803;DHT22;12082;51.786;6.018;2022-09-03T16:42:06;26.10;69.50
23803;DHT22;12082;51.786;6.018;2022-09-03T16:45:00;25.90;69.50
23803;DHT22;12082;51.786;6.018;2022-09-03T16:58:59;25.00;73.80
23803;DHT22;12082;51.786;6.018;2022-09-03T17:15:10;24.30;76.40
23803;DHT22;12082;51.786;6.018;2022-09-03T17:17:42;24.10;76.70
23803;DHT22;12082;51.786;6.018;2022-09-03T17:25:27;23.70;79.50
23803;DHT22;12082;51.786;6.018;2022-09-03T17:30:57;23.30;83.10
23803;DHT22;12082;51.786;6.018;2022-09-03T17:36:21;23.20;80.20
23803;DHT22;12082;51.786;6.018;2022-09-03T17:39:22;23.10;81.30
23803;DHT22;12082;51.786;6.018;2022-09-03T17:49:45;22.60;85.40
23803;DHT22;12082;51.786;6.018;2022-09-03T17:54:47;22.20;88.50
23803;DHT22;12082;51.786;6.018;2022-09-03T17:57:23;22.00;89.50
23803;DHT22;12082;51.786;6.018;2022-09-03T18:00:05;21.80;90.10
23803;DHT22;12082;51.786;6.018;2022-09-03T18:02:50;21.60;91.30
23803;DHT22;12082;51.786;6.018;2022-09-03T18:05:21;21.40;91.50
23803;DHT22;12082;51.786;6.018;2022-09-03T18:16:11;20.70;93.60
23803;DHT22;12082;51.786;6.018;2022-09-03T18:18:45;20.50;93.90
23803;DHT22;12082;51.786;6.018;2022-09-03T18:21:20;20.30;94.60
23803;DHT22;12082;51.786;6.018;2022-09-03T18:24:22;20.20;94.60
23803;DHT22;12082;51.786;6.018;2022-09-03T18:27:42;20.10;94.80
23803;DHT22;12082;51.786;6.018;2022-09-03T18:30:27;19.90;95.20
23803;DHT22;12082;51.786;6.018;2022-09-03T18:33:11;19.80;95.30
23803;DHT22;12082;51.786;6.018;2022-09-03T18:35:57;19.70;95.50
23803;DHT22;12082;51.786;6.018;2022-09-03T18:38:41;19.60;96.00
23803;DHT22;12082;51.786;6.018;2022-09-03T18:50:21;19.20;98.00
23803;DHT22;12082;51.786;6.018;2022-09-03T18:56:49;19.00;99.00
23803;DHT22;12082;51.786;6.018;2022-09-03T18:59:59;18.90;99.90
23803;DHT22;12082;51.786;6.018;2022-09-03T19:03:06;18.80;99.90
23803;DHT22;12082;51.786;6.018;2022-09-03T19:09:19;18.70;99.90
23803;DHT22;12082;51.786;6.018;2022-09-03T19:15:27;18.40;99.90
23803;DHT22;12082;51.786;6.018;2022-09-03T19:24:30;17.90;99.90
23803;DHT22;12082;51.786;6.018;2022-09-03T19:27:28;17.90;99.90
23803;DHT22;12082;51.786;6.018;2022-09-03T19:30:20;17.70;99.90
23803;DHT22;12082;51.786;6.018;2022-09-03T19:33:44;17.60;99.90
23803;DHT22;12082;51.786;6.018;2022-09-03T19:36:43;17.50;99.90
23803;DHT22;12082;51.786;6.018;2022-09-03T19:46:21;17.20;99.90
23803;DHT22;12082;51.786;6.018;2022-09-03T19:52:12;17.00;99.90
23803;DHT22;12082;51.786;6.018;2022-09-03T19:55:01;16.90;99.90
23803;DHT22;12082;51.786;6.018;2022-09-03T19:57:52;16.80;99.90
23803;DHT22;12082;51.786;6.018;2022-09-03T20:00:37;16.70;99.90
23803;DHT22;12082;51.786;6.018;2022-09-03T20:03:23;16.60;99.90
23803;DHT22;12082;51.786;6.018;2022-09-03T20:06:08;16.60;99.90
23803;DHT22;12082;51.786;6.018;2022-09-03T20:08:58;16.60;99.90
23803;DHT22;12082;51.786;6.018;2022-09-03T20:11:43;16.60;99.90
23803;DHT22;12082;51.786;6.018;2022-09-03T20:14:14;16.60;99.90
23803;DHT22;12082;51.786;6.018;2022-09-03T20:21:57;16.40;99.90
23803;DHT22;12082;51.786;6.018;2022-09-03T20:30:15;16.20;99.90
23803;DHT22;12082;51.786;6.018;2022-09-03T20:32:59;16.10;99.90
23803;DHT22;12082;51.786;6.018;2022-09-03T20:46:18;15.70;99.90
23803;DHT22;12082;51.786;6.018;2022-09-03T20:51:44;15.70;99.90
23803;DHT22;12082;51.786;6.018;2022-09-03T20:55:01;15.70;99.90
23803;DHT22;12082;51.786;6.018;2022-09-03T21:00:08;15.70;99.90
23803;DHT22;12082;51.786;6.018;2022-09-03T21:03:01;15.70;99.90
23803;DHT22;12082;51.786;6.018;2022-09-03T21:05:42;15.60;99.90
23803;DHT22;12082;51.786;6.018;2022-09-03T21:11:00;15.50;99.90
23803;DHT22;12082;51.786;6.018;2022-09-03T21:13:44;15.50;99.90
23803;DHT22;12082;51.786;6.018;2022-09-03T21:16:52;15.50;99.90
23803;DHT22;12082;51.786;6.018;2022-09-03T21:22:32;15.50;99.90
23803;DHT22;12082;51.786;6.018;2022-09-03T21:25:29;15.50;99.90
23803;DHT22;12082;51.786;6.018;2022-09-03T21:28:05;15.60;99.90
23803;DHT22;12082;51.786;6.018;2022-09-03T21:30:35;15.60;99.90
23803;DHT22;12082;51.786;6.018;2022-09-03T21:33:10;15.70;99.90
23803;DHT22;12082;51.786;6.018;2022-09-03T21:35:43;15.70;99.90
23803;DHT22;12082;51.786;6.018;2022-09-03T21:40:44;15.80;99.90
23803;DHT22;12082;51.786;6.018;2022-09-03T21:43:16;15.90;99.90
23803;DHT22;12082;51.786;6.018;2022-09-03T21:45:46;16.00;99.90
23803;DHT22;12082;51.786;6.018;2022-09-03T21:48:24;16.00;99.90
23803;DHT22;12082;51.786;6.018;2022-09-03T21:51:03;16.10;99.90
23803;DHT22;12082;51.786;6.018;2022-09-03T21:53:56;16.10;99.90
23803;DHT22;12082;51.786;6.018;2022-09-03T21:59:25;16.00;99.90
23803;DHT22;12082;51.786;6.018;2022-09-03T22:01:56;16.10;99.90
23803;DHT22;12082;51.786;6.018;2022-09-03T22:04:25;16.00;99.90
23803;DHT22;12082;51.786;6.018;2022-09-03T22:09:44;15.90;99.90